Alstonville, New South Wales

9:18 PM AEDT on October 24, 2014 (GMT +1100)
INSWMCLE1 | Change Station
CLOSE
Current Station
Personal Weather Station
Location: McLeans Ridges, NSW
Elevation: 410 ft
Nearby Weather Stations

Elev 410 ft 28.79 °S, 153.40 °E | Updated 5 minutes ago

Clear
Clear
67.3 °F
Feels Like 67.3 °F
N
7.0
Wind Variable Wind from NNE
Gusts 13.9 mph

Today
High -- | Low -- °F
--% Chance of Precip.
Yesterday
High -- | Low -- °F
Precip. -- in
6:00 AM 7:00 PM
New Moon, 0% visible
Pressure 30.12 in
Visibility 6.2 miles
Clouds
Dew Point 52 °F
Humidity 59%
Rainfall -999.00 in
Snow Depth Not available.
UV Not available.
Pollen Not available.
Air Quality Not available.
Flu Activity Not available.
METAR YLIS 241000Z AUTO 03011KT 9999 // NCD 21/15 Q1020

More Conditions Fewer Conditions

Pressure 30.12 in
Visibility 6.2 miles
Clouds
Dew Point 52 °F
Humidity 59%
Rainfall -999.00 in
Snow Depth Not available.
UV Not available.
Pollen Not available.
Air Quality Not available.
Flu Activity Not available.
METAR YLIS 241000Z AUTO 03011KT 9999 // NCD 21/15 Q1020

More Conditions Fewer Conditions

10-Day Weather Forecast

Almanac

Astronomy

Oct. 24, 2014 Rise Set
Actual Time 6:00 AM AEDT 7:00 PM AEDT
Civil Twilight 5:36 AM AEDT 7:25 PM AEDT
Nautical Twilight 5:07 AM AEDT 7:54 PM AEDT
Astronomical Twilight 4:37 AM AEDT 8:23 PM AEDT
Moon 6:04 AM AEDT 7:18 PM AEDT
Length of Visible Light 13h 48m
Length of Day
13h 00m
Tomorrow will be 1m 37s longer.
New Moon, 0% of the Moon is Illuminated
Today
New Moon
Oct 30
First Quarter
Nov 6
Full
Nov 14
Last Quarter
Nov 22
New

Yesterday's Extremes

Country Highs Country Lows

Community

WunderPhotos

Upload Photos

1,764,513 photos uploaded!

WunderBlogs® & News

Nearby

Snow Depth

Not available.

Earthquake Activity

City Distance Mag. Time & Date
No recent earthquake activity has been reported nearby.
Minimum magnitude displayed is 2.5.

Coastal Water Temperatures

Place Temperature
No Stations Reporting

Nearby Weather Stations